Time,TemperatureF,DewpointF,PressureIn,WindDirection,WindDirectionDegrees,WindSpeedMPH,WindSpeedGustMPH,Humidity,HourlyPrecipIn,Conditions,Clouds,dailyrainin,SoftwareType,DateUTC
2013-06-12 00:02:00,45.3,44.8,24.25,NW,315,12.0,13.0,98,0.00,,,0.00,meteohub,2013-06-12 06:02:00,
2013-06-12 00:07:00,45.3,44.8,24.24,NW,315,12.0,13.0,98,0.00,,,0.00,meteohub,2013-06-12 06:07:00,
2013-06-12 00:17:00,45.7,45.1,24.25,NW,315,11.0,15.0,98,0.00,,,0.00,meteohub,2013-06-12 06:17:00,
2013-06-12 00:22:00,45.5,45.3,24.25,NW,315,8.0,15.0,99,0.00,,,0.00,meteohub,2013-06-12 06:22:00,
2013-06-12 00:27:00,45.7,45.5,24.25,NW,315,8.0,15.0,99,0.00,,,0.00,meteohub,2013-06-12 06:27:00,
2013-06-12 00:32:00,45.7,45.5,24.25,NW,315,6.0,12.0,99,0.00,,,0.00,meteohub,2013-06-12 06:32:00,
2013-06-12 00:37:00,45.9,45.7,24.25,NW,315,4.0,10.0,99,0.00,,,0.00,meteohub,2013-06-12 06:37:00,
2013-06-12 00:47:00,46.0,45.3,24.24,East,90,4.0,7.0,97,0.00,,,0.00,meteohub,2013-06-12 06:47:00,
2013-06-12 00:52:00,46.2,45.5,24.25,East,90,4.0,5.0,97,0.00,,,0.00,meteohub,2013-06-12 06:52:00,
2013-06-12 00:57:00,46.6,46.0,24.25,SE,135,5.0,5.0,98,0.00,,,0.00,meteohub,2013-06-12 06:57:00,
2013-06-12 01:07:00,46.6,45.9,24.24,SSE,158,8.0,8.0,97,0.00,,,0.00,meteohub,2013-06-12 07:07:00,
2013-06-12 01:12:00,46.0,45.9,24.25,South,180,5.0,8.0,99,0.00,,,0.00,meteohub,2013-06-12 07:12:00,
2013-06-12 01:17:00,45.9,45.7,24.24,SE,135,4.0,8.0,99,0.00,,,0.00,meteohub,2013-06-12 07:17:00,
2013-06-12 01:27:00,45.9,45.7,24.24,South,180,4.0,6.0,99,0.00,,,0.00,meteohub,2013-06-12 07:27:00,
2013-06-12 01:37:00,45.9,45.3,24.24,SE,135,4.0,6.0,98,0.00,,,0.00,meteohub,2013-06-12 07:37:00,
2013-06-12 01:42:00,45.7,45.5,24.24,South,180,3.0,6.0,99,0.00,,,0.00,meteohub,2013-06-12 07:42:00,
2013-06-12 01:47:00,45.9,45.7,24.24,SE,135,4.0,6.0,99,0.00,,,0.00,meteohub,2013-06-12 07:47:00,
2013-06-12 01:52:00,46.4,46.2,24.24,South,180,4.0,5.0,99,0.00,,,0.00,meteohub,2013-06-12 07:52:00,
2013-06-12 01:57:00,46.2,45.7,24.24,South,180,4.0,4.0,98,0.00,,,0.00,meteohub,2013-06-12 07:57:00,
2013-06-12 02:07:00,46.4,45.9,24.24,South,180,4.0,4.0,98,0.00,,,0.00,meteohub,2013-06-12 08:07:00,
2013-06-12 02:17:00,46.2,45.5,24.24,South,180,8.0,8.0,97,0.00,,,0.00,meteohub,2013-06-12 08:17:00,
2013-06-12 02:22:00,46.0,45.3,24.24,South,180,8.0,8.0,97,0.00,,,0.00,meteohub,2013-06-12 08:22:00,
2013-06-12 02:27:00,46.0,45.5,24.24,South,180,8.0,8.0,98,0.00,,,0.00,meteohub,2013-06-12 08:27:00,
2013-06-12 02:32:00,45.9,45.3,24.24,SSE,158,10.0,10.0,98,0.00,,,0.00,meteohub,2013-06-12 08:32:00,
2013-06-12 02:37:00,45.5,45.0,24.24,SE,135,8.0,10.0,98,0.00,,,0.00,meteohub,2013-06-12 08:37:00,
2013-06-12 02:42:00,45.1,45.0,24.24,SE,135,8.0,10.0,99,0.00,,,0.00,meteohub,2013-06-12 08:42:00,
2013-06-12 02:47:00,45.1,45.0,24.24,SE,135,8.0,10.0,99,0.00,,,0.00,meteohub,2013-06-12 08:47:00,
2013-06-12 02:52:00,45.3,45.1,24.24,South,180,11.0,11.0,99,0.00,,,0.00,meteohub,2013-06-12 08:52:00,
2013-06-12 02:57:00,45.3,45.1,24.24,South,180,11.0,11.0,99,0.00,,,0.00,meteohub,2013-06-12 08:57:00,
2013-06-12 03:02:00,45.1,45.0,24.24,South,180,11.0,12.0,99,0.00,,,0.00,meteohub,2013-06-12 09:02:00,
2013-06-12 03:07:00,45.1,45.0,24.23,South,180,11.0,12.0,99,0.00,,,0.00,meteohub,2013-06-12 09:07:00,
2013-06-12 03:12:00,45.1,45.0,24.24,South,180,13.0,13.0,99,0.00,,,0.00,meteohub,2013-06-12 09:12:00,
2013-06-12 03:17:00,45.0,44.8,24.23,South,180,14.0,14.0,99,0.00,,,0.00,meteohub,2013-06-12 09:17:00,
2013-06-12 03:22:00,44.8,44.6,24.23,South,180,14.0,14.0,99,0.00,,,0.00,meteohub,2013-06-12 09:22:00,
2013-06-12 03:27:00,45.0,44.8,24.23,South,180,14.0,14.0,99,0.00,,,0.00,meteohub,2013-06-12 09:27:00,
2013-06-12 03:32:00,45.1,45.0,24.23,South,180,15.0,15.0,99,0.00,,,0.00,meteohub,2013-06-12 09:32:00,
2013-06-12 03:37:00,45.5,45.3,24.23,South,180,13.0,15.0,99,0.00,,,0.00,meteohub,2013-06-12 09:37:00,
2013-06-12 03:42:00,45.7,45.1,24.23,South,180,15.0,15.0,98,0.00,,,0.00,meteohub,2013-06-12 09:42:00,
2013-06-12 03:47:00,45.7,45.1,24.23,South,180,16.0,16.0,98,0.00,,,0.00,meteohub,2013-06-12 09:47:00,
2013-06-12 03:52:00,45.9,45.1,24.22,South,180,17.0,17.0,97,0.00,,,0.00,meteohub,2013-06-12 09:52:00,
2013-06-12 03:57:00,46.4,45.7,24.22,South,180,16.0,17.0,97,0.00,,,0.00,meteohub,2013-06-12 09:57:00,
2013-06-12 04:02:00,46.4,45.3,24.22,South,180,16.0,17.0,96,0.00,,,0.00,meteohub,2013-06-12 10:02:00,
2013-06-12 04:07:00,46.4,45.3,24.22,South,180,16.0,17.0,96,0.00,,,0.00,meteohub,2013-06-12 10:07:00,
2013-06-12 04:12:00,46.6,45.5,24.22,South,180,16.0,17.0,96,0.00,,,0.00,meteohub,2013-06-12 10:12:00,
2013-06-12 04:17:00,46.9,45.9,24.22,South,180,16.0,16.0,96,0.00,,,0.00,meteohub,2013-06-12 10:17:00,
2013-06-12 04:22:00,46.8,45.7,24.22,South,180,17.0,17.0,96,0.00,,,0.00,meteohub,2013-06-12 10:22:00,
2013-06-12 04:27:00,46.6,45.9,24.22,South,180,18.0,18.0,97,0.00,,,0.00,meteohub,2013-06-12 10:27:00,
2013-06-12 04:32:00,46.4,45.7,24.22,South,180,15.0,18.0,97,0.00,,,0.00,meteohub,2013-06-12 10:32:00,
2013-06-12 04:37:00,46.6,46.4,24.22,South,180,17.0,18.0,99,0.00,,,0.00,meteohub,2013-06-12 10:37:00,
2013-06-12 04:42:00,46.6,46.0,24.22,South,180,15.0,18.0,98,0.00,,,0.00,meteohub,2013-06-12 10:42:00,
2013-06-12 04:47:00,46.4,45.9,24.22,South,180,16.0,17.0,98,0.00,,,0.00,meteohub,2013-06-12 10:47:00,
2013-06-12 04:52:00,46.4,45.9,24.22,South,180,15.0,17.0,98,0.00,,,0.00,meteohub,2013-06-12 10:52:00,
2013-06-12 04:57:00,46.2,45.7,24.22,South,180,15.0,17.0,98,0.00,,,0.00,meteohub,2013-06-12 10:57:00,
2013-06-12 05:02:00,46.4,46.2,24.22,South,180,16.0,17.0,99,0.00,,,0.00,meteohub,2013-06-12 11:02:00,
2013-06-12 05:07:00,46.4,46.2,24.21,South,180,16.0,17.0,99,0.00,,,0.00,meteohub,2013-06-12 11:07:00,
2013-06-12 05:12:00,46.4,45.9,24.21,South,180,19.0,19.0,98,0.00,,,0.00,meteohub,2013-06-12 11:12:00,
2013-06-12 05:17:00,46.0,45.5,24.21,South,180,17.0,21.0,98,0.00,,,0.00,meteohub,2013-06-12 11:17:00,
2013-06-12 05:22:00,46.0,45.9,24.21,South,180,17.0,21.0,99,0.00,,,0.00,meteohub,2013-06-12 11:22:00,
2013-06-12 05:27:00,46.4,45.9,24.21,South,180,21.0,21.0,98,0.00,,,0.00,meteohub,2013-06-12 11:27:00,
2013-06-12 05:32:00,46.2,46.0,24.21,South,180,21.0,22.0,99,0.00,,,0.00,meteohub,2013-06-12 11:32:00,
2013-06-12 05:37:00,46.4,45.9,24.21,South,180,22.0,22.0,98,0.00,,,0.00,meteohub,2013-06-12 11:37:00,
2013-06-12 05:42:00,46.4,45.9,24.21,South,180,23.0,23.0,98,0.00,,,0.00,meteohub,2013-06-12 11:42:00,
2013-06-12 05:47:00,46.0,45.5,24.21,South,180,21.0,23.0,98,0.00,,,0.00,meteohub,2013-06-12 11:47:00,
2013-06-12 05:52:00,46.2,45.7,24.20,South,180,23.0,23.0,98,0.00,,,0.00,meteohub,2013-06-12 11:52:00,
2013-06-12 05:57:00,46.2,45.7,24.20,South,180,24.0,26.0,98,0.00,,,0.00,meteohub,2013-06-12 11:57:00,
2013-06-12 06:02:00,46.0,45.5,24.20,South,180,25.0,26.0,98,0.00,,,0.00,meteohub,2013-06-12 12:02:00,
2013-06-12 06:07:00,46.0,45.5,24.20,South,180,25.0,25.0,98,0.00,,,0.00,meteohub,2013-06-12 12:07:00,
2013-06-12 06:12:00,46.6,46.0,24.20,South,180,24.0,28.0,98,0.00,,,0.00,meteohub,2013-06-12 12:12:00,
2013-06-12 06:17:00,46.9,46.8,24.20,South,180,30.0,30.0,99,0.00,,,0.00,meteohub,2013-06-12 12:17:00,
2013-06-12 06:22:00,47.1,46.6,24.20,South,180,26.0,30.0,98,0.00,,,0.00,meteohub,2013-06-12 12:22:00,
2013-06-12 06:27:00,47.5,46.9,24.19,South,180,27.0,30.0,98,0.00,,,0.00,meteohub,2013-06-12 12:27:00,
2013-06-12 06:32:00,47.8,46.9,24.19,South,180,28.0,30.0,97,0.00,,,0.00,meteohub,2013-06-12 12:32:00,
2013-06-12 06:37:00,47.7,46.9,24.20,South,180,26.0,29.0,97,0.00,,,0.00,meteohub,2013-06-12 12:37:00,
2013-06-12 06:42:00,47.3,46.8,24.20,South,180,25.0,30.0,98,0.00,,,0.00,meteohub,2013-06-12 12:42:00,
2013-06-12 06:47:00,47.3,46.8,24.20,South,180,23.0,30.0,98,0.00,,,0.00,meteohub,2013-06-12 12:47:00,
2013-06-12 06:52:00,47.3,47.1,24.21,South,180,21.0,28.0,99,0.00,,,0.00,meteohub,2013-06-12 12:52:00,
2013-06-12 06:57:00,47.7,47.5,24.20,South,180,26.0,26.0,99,0.00,,,0.00,meteohub,2013-06-12 12:57:00,
2013-06-12 07:02:00,47.8,47.7,24.20,South,180,27.0,28.0,99,0.00,,,0.00,meteohub,2013-06-12 13:02:00,
2013-06-12 07:07:00,47.8,47.7,24.21,South,180,27.0,28.0,99,0.00,,,0.00,meteohub,2013-06-12 13:07:00,
2013-06-12 07:12:00,48.2,48.0,24.21,South,180,19.0,28.0,99,0.00,,,0.00,meteohub,2013-06-12 13:12:00,
2013-06-12 07:17:00,48.6,48.4,24.20,South,180,22.0,27.0,99,0.00,,,0.00,meteohub,2013-06-12 13:17:00,
2013-06-12 07:22:00,50.0,48.9,24.20,South,180,27.0,27.0,96,0.00,,,0.00,meteohub,2013-06-12 13:22:00,
2013-06-12 07:27:00,50.5,49.5,24.20,South,180,27.0,27.0,96,0.00,,,0.00,meteohub,2013-06-12 13:27:00,
2013-06-12 07:32:00,50.4,49.3,24.19,South,180,30.0,30.0,96,0.00,,,0.00,meteohub,2013-06-12 13:32:00,
2013-06-12 07:37:00,50.2,48.7,24.19,South,180,35.0,35.0,95,0.00,,,0.00,meteohub,2013-06-12 13:37:00,
2013-06-12 07:42:00,50.4,49.3,24.19,South,180,30.0,40.0,96,0.00,,,0.00,meteohub,2013-06-12 13:42:00,
2013-06-12 07:47:00,50.2,49.3,24.18,South,180,30.0,40.0,97,0.00,,,0.00,meteohub,2013-06-12 13:47:00,
2013-06-12 07:52:00,51.3,50.2,24.19,South,180,30.0,40.0,96,0.00,,,0.00,meteohub,2013-06-12 13:52:00,
2013-06-12 07:57:00,51.3,49.3,24.18,SSE,158,36.0,37.0,93,0.00,,,0.00,meteohub,2013-06-12 13:57:00,
2013-06-12 08:02:00,50.5,48.9,24.18,South,180,35.0,37.0,94,0.00,,,0.00,meteohub,2013-06-12 14:02:00,
2013-06-12 08:07:00,50.5,48.9,24.19,South,180,35.0,37.0,94,0.00,,,0.00,meteohub,2013-06-12 14:07:00,
2013-06-12 08:12:00,51.6,49.5,24.18,South,180,32.0,36.0,92,0.00,,,0.00,meteohub,2013-06-12 14:12:00,
2013-06-12 08:17:00,51.3,49.1,24.18,South,180,31.0,35.0,92,0.00,,,0.00,meteohub,2013-06-12 14:17:00,
2013-06-12 08:22:00,50.9,49.5,24.18,South,180,27.0,37.0,95,0.00,,,0.00,meteohub,2013-06-12 14:22:00,
2013-06-12 08:27:00,51.6,49.5,24.18,South,180,30.0,37.0,92,0.00,,,0.00,meteohub,2013-06-12 14:27:00,
2013-06-12 08:32:00,52.5,50.2,24.17,South,180,33.0,37.0,92,0.00,,,0.00,meteohub,2013-06-12 14:32:00,
2013-06-12 08:37:00,52.3,49.8,24.17,South,180,36.0,40.0,91,0.00,,,0.00,meteohub,2013-06-12 14:37:00,
2013-06-12 08:42:00,53.1,49.8,24.17,South,180,39.0,40.0,89,0.00,,,0.00,meteohub,2013-06-12 14:42:00,
2013-06-12 08:47:00,52.9,49.5,24.17,South,180,40.0,41.0,88,0.00,,,0.00,meteohub,2013-06-12 14:47:00,
2013-06-12 08:52:00,53.2,49.8,24.17,South,180,34.0,41.0,88,0.00,,,0.00,meteohub,2013-06-12 14:52:00,
2013-06-12 08:57:00,53.8,49.6,24.17,South,180,38.0,41.0,86,0.00,,,0.00,meteohub,2013-06-12 14:57:00,
2013-06-12 09:02:00,53.8,49.6,24.17,South,180,36.0,40.0,86,0.00,,,0.00,meteohub,2013-06-12 15:02:00,
2013-06-12 09:07:00,53.8,49.6,24.17,South,180,36.0,40.0,86,0.00,,,0.00,meteohub,2013-06-12 15:07:00,
2013-06-12 09:12:00,54.1,49.8,24.17,South,180,39.0,39.0,85,0.00,,,0.00,meteohub,2013-06-12 15:12:00,
2013-06-12 09:17:00,54.7,49.6,24.17,SSE,158,45.0,45.0,83,0.00,,,0.00,meteohub,2013-06-12 15:17:00,
2013-06-12 09:22:00,54.9,50.2,24.17,South,180,37.0,45.0,84,0.00,,,0.00,meteohub,2013-06-12 15:22:00,
2013-06-12 09:27:00,55.6,50.9,24.15,South,180,38.0,45.0,84,0.00,,,0.00,meteohub,2013-06-12 15:27:00,
2013-06-12 09:32:00,55.8,50.7,24.17,South,180,40.0,45.0,83,0.00,,,0.00,meteohub,2013-06-12 15:32:00,
2013-06-12 09:37:00,55.6,51.1,24.15,South,180,41.0,43.0,85,0.00,,,0.00,meteohub,2013-06-12 15:37:00,
2013-06-12 09:42:00,56.1,51.1,24.16,South,180,39.0,46.0,83,0.00,,,0.00,meteohub,2013-06-12 15:42:00,
2013-06-12 09:47:00,56.3,51.4,24.16,South,180,42.0,46.0,84,0.01,,,0.01,meteohub,2013-06-12 15:47:00,
2013-06-12 09:52:00,56.7,51.3,24.17,South,180,37.0,46.0,82,0.01,,,0.01,meteohub,2013-06-12 15:52:00,
2013-06-12 09:57:00,57.0,51.3,24.18,SSE,158,33.0,42.0,81,0.01,,,0.01,meteohub,2013-06-12 15:57:00,
2013-06-12 10:02:00,57.4,50.9,24.17,South,180,38.0,42.0,79,0.01,,,0.01,meteohub,2013-06-12 16:02:00,
2013-06-12 10:07:00,57.4,50.9,24.18,South,180,38.0,39.0,79,0.01,,,0.01,meteohub,2013-06-12 16:07:00,
2013-06-12 10:12:00,57.0,50.9,24.17,South,180,34.0,38.0,80,0.01,,,0.01,meteohub,2013-06-12 16:12:00,
2013-06-12 10:17:00,56.8,51.8,24.17,SSE,158,34.0,38.0,83,0.01,,,0.01,meteohub,2013-06-12 16:17:00,
2013-06-12 10:22:00,58.1,52.0,24.16,SE,135,37.0,38.0,80,0.01,,,0.01,meteohub,2013-06-12 16:22:00,
2013-06-12 10:27:00,57.7,51.3,24.16,SSE,158,36.0,39.0,79,0.01,,,0.01,meteohub,2013-06-12 16:27:00,
2013-06-12 10:32:00,56.5,50.4,24.16,SE,135,35.0,40.0,80,0.01,,,0.01,meteohub,2013-06-12 16:32:00,
2013-06-12 10:37:00,58.3,52.9,24.17,South,180,34.0,40.0,82,0.01,,,0.01,meteohub,2013-06-12 16:37:00,
2013-06-12 10:42:00,58.8,50.9,24.16,South,180,38.0,40.0,75,0.00,,,0.01,meteohub,2013-06-12 16:42:00,
2013-06-12 10:47:00,58.6,52.2,24.16,South,180,36.0,38.0,79,0.00,,,0.01,meteohub,2013-06-12 16:47:00,
2013-06-12 10:52:00,59.2,50.9,24.17,South,180,37.0,39.0,74,0.00,,,0.01,meteohub,2013-06-12 16:52:00,
2013-06-12 10:57:00,59.7,51.4,24.17,South,180,31.0,39.0,74,0.00,,,0.01,meteohub,2013-06-12 16:57:00,
2013-06-12 11:02:00,60.1,52.2,24.17,South,180,30.0,39.0,75,0.00,,,0.01,meteohub,2013-06-12 17:02:00,
2013-06-12 11:07:00,60.1,52.2,24.18,South,180,30.0,37.0,75,0.00,,,0.01,meteohub,2013-06-12 17:07:00,
2013-06-12 11:12:00,60.6,51.1,24.18,South,180,27.0,34.0,71,0.00,,,0.01,meteohub,2013-06-12 17:12:00,
2013-06-12 11:17:00,61.3,52.2,24.18,South,180,28.0,32.0,72,0.00,,,0.01,meteohub,2013-06-12 17:17:00,
2013-06-12 11:27:00,59.4,51.1,24.19,South,180,24.0,32.0,74,0.00,,,0.01,meteohub,2013-06-12 17:27:00,
2013-06-12 11:32:00,59.2,50.9,24.18,South,180,25.0,28.0,74,0.00,,,0.01,meteohub,2013-06-12 17:32:00,
2013-06-12 11:37:00,60.1,51.1,24.19,South,180,24.0,28.0,72,0.00,,,0.01,meteohub,2013-06-12 17:37:00,
2013-06-12 11:42:00,60.4,51.4,24.18,South,180,28.0,28.0,72,0.00,,,0.01,meteohub,2013-06-12 17:42:00,
2013-06-12 11:47:00,60.6,52.3,24.18,South,180,24.0,30.0,74,0.00,,,0.01,meteohub,2013-06-12 17:47:00,
2013-06-12 11:52:00,61.7,52.2,24.18,SSE,158,30.0,30.0,71,0.00,,,0.01,meteohub,2013-06-12 17:52:00,
2013-06-12 11:57:00,62.2,52.3,24.18,SSE,158,27.0,30.0,70,0.00,,,0.01,meteohub,2013-06-12 17:57:00,
2013-06-12 12:02:00,62.1,51.4,24.18,SE,135,24.0,30.0,68,0.00,,,0.01,meteohub,2013-06-12 18:02:00,
2013-06-12 12:07:00,62.1,51.4,24.18,SE,135,24.0,30.0,68,0.00,,,0.01,meteohub,2013-06-12 18:07:00,
2013-06-12 12:12:00,63.0,53.1,24.18,South,180,18.0,27.0,70,0.00,,,0.01,meteohub,2013-06-12 18:12:00,
2013-06-12 12:17:00,63.1,53.2,24.18,South,180,19.0,27.0,70,0.00,,,0.01,meteohub,2013-06-12 18:17:00,
2013-06-12 12:22:00,63.0,52.2,24.18,South,180,21.0,27.0,68,0.00,,,0.01,meteohub,2013-06-12 18:22:00,
2013-06-12 12:27:00,63.7,54.1,24.18,SE,135,21.0,27.0,71,0.00,,,0.01,meteohub,2013-06-12 18:27:00,
2013-06-12 12:32:00,62.1,50.9,24.18,South,180,17.0,28.0,67,0.00,,,0.01,meteohub,2013-06-12 18:32:00,
2013-06-12 12:37:00,63.7,51.3,24.18,South,180,17.0,28.0,64,0.00,,,0.01,meteohub,2013-06-12 18:37:00,
2013-06-12 12:42:00,62.6,51.4,24.18,SE,135,18.0,28.0,67,0.00,,,0.01,meteohub,2013-06-12 18:42:00,
2013-06-12 12:47:00,61.7,52.5,24.18,SE,135,18.0,28.0,72,0.00,,,0.01,meteohub,2013-06-12 18:47:00,
2013-06-12 12:52:00,62.6,52.0,24.19,East,90,13.0,20.0,68,0.00,,,0.01,meteohub,2013-06-12 18:52:00,
2013-06-12 12:57:00,62.8,52.0,24.18,SSE,158,19.0,19.0,68,0.00,,,0.01,meteohub,2013-06-12 18:57:00,
2013-06-12 13:02:00,62.6,53.1,24.18,SE,135,22.0,22.0,71,0.00,,,0.01,meteohub,2013-06-12 19:02:00,
2013-06-12 13:07:00,62.6,53.1,24.18,SE,135,22.0,22.0,71,0.00,,,0.01,meteohub,2013-06-12 19:07:00,
2013-06-12 13:12:00,63.9,51.8,24.18,SE,135,20.0,22.0,65,0.00,,,0.01,meteohub,2013-06-12 19:12:00,
2013-06-12 13:17:00,63.0,52.7,24.18,SE,135,13.0,22.0,69,0.00,,,0.01,meteohub,2013-06-12 19:17:00,
2013-06-12 13:22:00,64.6,51.3,24.17,South,180,20.0,22.0,62,0.00,,,0.01,meteohub,2013-06-12 19:22:00,
2013-06-12 13:27:00,63.9,52.3,24.18,SE,135,11.0,21.0,66,0.00,,,0.01,meteohub,2013-06-12 19:27:00,
2013-06-12 13:32:00,64.0,51.3,24.17,South,180,15.0,21.0,63,0.00,,,0.01,meteohub,2013-06-12 19:32:00,
2013-06-12 13:37:00,63.3,51.4,24.17,South,180,13.0,22.0,65,0.00,,,0.01,meteohub,2013-06-12 19:37:00,
2013-06-12 13:42:00,64.0,52.5,24.17,SSE,158,22.0,22.0,66,0.00,,,0.01,meteohub,2013-06-12 19:42:00,
2013-06-12 13:47:00,66.6,53.1,24.17,SE,135,23.0,23.0,62,0.00,,,0.01,meteohub,2013-06-12 19:47:00,
2013-06-12 13:52:00,67.5,53.1,24.17,SSE,158,21.0,25.0,60,0.00,,,0.01,meteohub,2013-06-12 19:52:00,
2013-06-12 13:57:00,65.8,51.6,24.17,SE,135,19.0,25.0,60,0.00,,,0.01,meteohub,2013-06-12 19:57:00,
2013-06-12 14:02:00,65.1,51.8,24.17,SE,135,20.0,25.0,62,0.00,,,0.01,meteohub,2013-06-12 20:02:00,
2013-06-12 14:07:00,65.1,51.8,24.17,SE,135,20.0,24.0,62,0.00,,,0.01,meteohub,2013-06-12 20:07:00,
2013-06-12 14:12:00,64.8,51.4,24.16,SSE,158,22.0,24.0,62,0.00,,,0.01,meteohub,2013-06-12 20:12:00,
2013-06-12 14:17:00,65.8,52.5,24.17,SE,135,18.0,23.0,62,0.00,,,0.01,meteohub,2013-06-12 20:17:00,
2013-06-12 14:22:00,65.8,50.7,24.17,SSE,158,17.0,23.0,58,0.00,,,0.01,meteohub,2013-06-12 20:22:00,
2013-06-12 14:27:00,64.9,50.2,24.17,South,180,19.0,23.0,59,0.00,,,0.01,meteohub,2013-06-12 20:27:00,
2013-06-12 14:32:00,64.8,52.3,24.16,South,180,7.0,21.0,64,0.00,,,0.01,meteohub,2013-06-12 20:32:00,
2013-06-12 14:37:00,65.3,52.3,24.17,SSE,158,8.0,21.0,63,0.00,,,0.01,meteohub,2013-06-12 20:37:00,
2013-06-12 14:42:00,65.5,53.8,24.17,SW,225,5.0,20.0,66,0.00,,,0.01,meteohub,2013-06-12 20:42:00,
2013-06-12 14:47:00,64.2,55.4,24.16,North,0,8.0,14.0,73,0.00,,,0.01,meteohub,2013-06-12 20:47:00,
2013-06-12 14:52:00,62.4,55.4,24.16,NNE,23,8.0,8.0,78,0.00,,,0.01,meteohub,2013-06-12 20:52:00,
2013-06-12 14:57:00,61.0,55.8,24.17,North,0,11.0,11.0,83,0.00,,,0.01,meteohub,2013-06-12 20:57:00,
2013-06-12 15:02:00,59.9,55.4,24.16,NNE,23,11.0,11.0,85,0.00,,,0.01,meteohub,2013-06-12 21:02:00,
2013-06-12 15:07:00,59.9,55.4,24.16,NNE,23,11.0,11.0,85,0.00,,,0.01,meteohub,2013-06-12 21:07:00,
2013-06-12 15:12:00,57.7,55.2,24.15,North,0,11.0,15.0,91,0.00,,,0.01,meteohub,2013-06-12 21:12:00,
2013-06-12 15:17:00,57.4,55.0,24.15,NE,45,10.0,15.0,92,0.00,,,0.01,meteohub,2013-06-12 21:17:00,
2013-06-12 15:22:00,57.0,54.7,24.16,North,0,6.0,15.0,92,0.00,,,0.01,meteohub,2013-06-12 21:22:00,
2013-06-12 15:27:00,57.6,52.5,24.15,South,180,13.0,21.0,83,0.00,,,0.01,meteohub,2013-06-12 21:27:00,
2013-06-12 15:32:00,59.5,48.9,24.15,SW,225,17.0,21.0,68,0.01,,,0.02,meteohub,2013-06-12 21:32:00,
2013-06-12 15:37:00,59.2,40.6,24.14,SW,225,37.0,37.0,50,0.01,,,0.02,meteohub,2013-06-12 21:37:00,
2013-06-12 15:42:00,58.5,42.4,24.12,South,180,29.0,49.0,55,0.04,,,0.05,meteohub,2013-06-12 21:42:00,
2013-06-12 15:47:00,53.8,38.5,24.11,SSW,203,47.0,49.0,56,0.06,,,0.06,meteohub,2013-06-12 21:47:00,
2013-06-12 15:52:00,53.2,41.0,24.12,East,90,1.0,49.0,63,0.09,,,0.11,meteohub,2013-06-12 21:52:00,
2013-06-12 15:57:00,54.1,37.4,24.12,SW,225,21.0,47.0,53,0.09,,,0.11,meteohub,2013-06-12 21:57:00,
2013-06-12 16:02:00,54.0,46.2,24.13,West,270,17.0,47.0,75,0.09,,,0.11,meteohub,2013-06-12 22:02:00,
2013-06-12 16:07:00,54.1,50.4,24.12,NW,315,15.0,21.0,87,0.09,,,0.11,meteohub,2013-06-12 22:07:00,
2013-06-12 16:12:00,54.3,52.7,24.13,West,270,27.0,27.0,94,0.09,,,0.11,meteohub,2013-06-12 22:12:00,
2013-06-12 16:17:00,54.3,52.9,24.13,NW,315,20.0,27.0,95,0.09,,,0.11,meteohub,2013-06-12 22:17:00,
2013-06-12 16:22:00,54.1,53.6,24.13,NW,315,17.0,27.0,98,0.09,,,0.11,meteohub,2013-06-12 22:22:00,
2013-06-12 16:27:00,54.3,53.8,24.13,NW,315,12.0,27.0,98,0.09,,,0.11,meteohub,2013-06-12 22:27:00,
2013-06-12 16:32:00,54.3,53.8,24.14,NW,315,15.0,21.0,98,0.08,,,0.11,meteohub,2013-06-12 22:32:00,
2013-06-12 16:37:00,54.3,54.0,24.12,North,0,20.0,21.0,99,0.08,,,0.11,meteohub,2013-06-12 22:37:00,
2013-06-12 16:42:00,54.9,54.5,24.12,North,0,19.0,21.0,99,0.06,,,0.11,meteohub,2013-06-12 22:42:00,
2013-06-12 16:47:00,55.4,55.0,24.14,NW,315,10.0,21.0,99,0.04,,,0.11,meteohub,2013-06-12 22:47:00,
2013-06-12 16:52:00,55.9,55.0,24.15,NW,315,11.0,21.0,97,0.00,,,0.11,meteohub,2013-06-12 22:52:00,
2013-06-12 16:57:00,56.3,55.4,24.16,NW,315,10.0,21.0,97,0.00,,,0.11,meteohub,2013-06-12 22:57:00,
2013-06-12 17:02:00,53.6,53.2,24.15,NW,315,27.0,27.0,99,0.00,,,0.11,meteohub,2013-06-12 23:02:00,
2013-06-12 17:07:00,53.1,52.7,24.13,NW,315,20.0,27.0,99,0.01,,,0.12,meteohub,2013-06-12 23:07:00,
2013-06-12 17:17:00,53.1,52.7,24.15,NW,315,15.0,27.0,99,0.01,,,0.12,meteohub,2013-06-12 23:17:00,
2013-06-12 17:22:00,53.1,52.7,24.17,NW,315,15.0,23.0,99,0.01,,,0.12,meteohub,2013-06-12 23:22:00,
2013-06-12 17:27:00,53.2,52.9,24.15,North,0,13.0,23.0,99,0.01,,,0.12,meteohub,2013-06-12 23:27:00,
2013-06-12 17:32:00,53.2,52.9,24.15,NW,315,15.0,18.0,99,0.01,,,0.12,meteohub,2013-06-12 23:32:00,
2013-06-12 17:37:00,53.1,52.7,24.14,NW,315,14.0,18.0,99,0.01,,,0.12,meteohub,2013-06-12 23:37:00,
2013-06-12 17:42:00,53.1,52.7,24.13,North,0,17.0,17.0,99,0.01,,,0.12,meteohub,2013-06-12 23:42:00,
2013-06-12 17:47:00,52.9,52.5,24.15,NW,315,23.0,23.0,99,0.01,,,0.12,meteohub,2013-06-12 23:47:00,
2013-06-12 17:52:00,52.5,52.2,24.16,NW,315,17.0,23.0,99,0.01,,,0.12,meteohub,2013-06-12 23:52:00,
2013-06-12 17:57:00,52.3,52.0,24.16,NW,315,16.0,23.0,99,0.01,,,0.12,meteohub,2013-06-12 23:57:00,
2013-06-12 18:02:00,52.3,52.0,24.16,NW,315,16.0,23.0,99,0.00,,,0.12,meteohub,2013-06-13 00:02:00,
2013-06-12 18:07:00,52.3,52.0,24.15,NNW,338,17.0,20.0,99,0.00,,,0.00,meteohub,2013-06-13 00:07:00,
2013-06-12 18:12:00,54.0,53.6,24.15,North,0,17.0,17.0,99,0.00,,,0.00,meteohub,2013-06-13 00:12:00,
2013-06-12 18:17:00,54.9,54.3,24.14,North,0,18.0,18.0,98,0.00,,,0.00,meteohub,2013-06-13 00:17:00,
2013-06-12 18:22:00,54.9,54.3,24.15,North,0,18.0,18.0,98,0.00,,,0.00,meteohub,2013-06-13 00:22:00,
2013-06-12 18:27:00,56.5,54.5,24.16,North,0,18.0,18.0,93,0.00,,,0.00,meteohub,2013-06-13 00:27:00,
2013-06-12 18:32:00,56.7,54.7,24.17,North,0,17.0,18.0,93,0.00,,,0.00,meteohub,2013-06-13 00:32:00,
2013-06-12 18:37:00,55.8,54.7,24.17,North,0,16.0,19.0,96,0.00,,,0.00,meteohub,2013-06-13 00:37:00,
2013-06-12 18:42:00,56.5,55.4,24.16,North,0,15.0,19.0,96,0.00,,,0.00,meteohub,2013-06-13 00:42:00,
2013-06-12 18:47:00,55.9,54.9,24.16,North,0,20.0,22.0,96,0.00,,,0.00,meteohub,2013-06-13 00:47:00,
2013-06-12 18:52:00,55.8,55.2,24.17,NW,315,15.0,22.0,98,0.00,,,0.00,meteohub,2013-06-13 00:52:00,
2013-06-12 18:57:00,55.6,55.2,24.17,North,0,15.0,22.0,99,0.00,,,0.00,meteohub,2013-06-13 00:57:00,
2013-06-12 19:02:00,55.6,55.2,24.17,North,0,16.0,22.0,99,0.00,,,0.00,meteohub,2013-06-13 01:02:00,
2013-06-12 19:07:00,55.6,55.2,24.17,North,0,16.0,17.0,99,0.00,,,0.00,meteohub,2013-06-13 01:07:00,
2013-06-12 19:12:00,55.4,55.0,24.17,North,0,12.0,17.0,99,0.00,,,0.00,meteohub,2013-06-13 01:12:00,
2013-06-12 19:17:00,54.7,54.3,24.17,WNW,293,14.0,17.0,99,0.00,,,0.00,meteohub,2013-06-13 01:17:00,
2013-06-12 19:22:00,54.5,54.1,24.17,NNW,338,13.0,17.0,99,0.00,,,0.00,meteohub,2013-06-13 01:22:00,
2013-06-12 19:27:00,54.7,54.3,24.17,North,0,13.0,17.0,99,0.00,,,0.00,meteohub,2013-06-13 01:27:00,
2013-06-12 19:32:00,54.5,54.1,24.17,North,0,12.0,17.0,99,0.00,,,0.00,meteohub,2013-06-13 01:32:00,
2013-06-12 19:37:00,54.7,54.3,24.17,NW,315,11.0,16.0,99,0.00,,,0.00,meteohub,2013-06-13 01:37:00,
2013-06-12 19:42:00,54.7,54.3,24.17,NW,315,12.0,15.0,99,0.00,,,0.00,meteohub,2013-06-13 01:42:00,
2013-06-12 19:47:00,54.5,54.1,24.17,NW,315,10.0,14.0,99,0.00,,,0.00,meteohub,2013-06-13 01:47:00,
2013-06-12 19:52:00,54.5,54.1,24.18,NW,315,5.0,14.0,99,0.05,,,0.05,meteohub,2013-06-13 01:52:00,
2013-06-12 19:57:00,54.5,54.1,24.18,North,0,4.0,14.0,99,0.05,,,0.05,meteohub,2013-06-13 01:57:00,
2013-06-12 20:07:00,54.5,54.1,24.18,NW,315,5.0,8.0,99,0.05,,,0.05,meteohub,2013-06-13 02:07:00,
2013-06-12 20:12:00,54.3,54.0,24.18,North,0,8.0,10.0,99,0.05,,,0.05,meteohub,2013-06-13 02:12:00,
2013-06-12 20:17:00,54.1,53.8,24.18,North,0,7.0,11.0,99,0.05,,,0.05,meteohub,2013-06-13 02:17:00,
2013-06-12 20:22:00,54.1,53.8,24.18,NW,315,11.0,11.0,99,0.05,,,0.05,meteohub,2013-06-13 02:22:00,
2013-06-12 20:27:00,54.0,53.6,24.18,NW,315,14.0,14.0,99,0.05,,,0.05,meteohub,2013-06-13 02:27:00,
2013-06-12 20:32:00,53.8,53.4,24.18,NW,315,15.0,15.0,99,0.06,,,0.06,meteohub,2013-06-13 02:32:00,
2013-06-12 20:37:00,53.2,52.9,24.18,WNW,293,9.0,18.0,99,0.06,,,0.06,meteohub,2013-06-13 02:37:00,
2013-06-12 20:42:00,53.1,52.7,24.18,West,270,4.0,18.0,99,0.06,,,0.06,meteohub,2013-06-13 02:42:00,
2013-06-12 20:47:00,52.9,52.5,24.19,South,180,8.0,18.0,99,0.05,,,0.06,meteohub,2013-06-13 02:47:00,
2013-06-12 20:52:00,52.3,52.0,24.18,SE,135,11.0,11.0,99,0.01,,,0.06,meteohub,2013-06-13 02:52:00,
2013-06-12 20:57:00,51.8,51.4,24.17,SE,135,14.0,14.0,99,0.01,,,0.06,meteohub,2013-06-13 02:57:00,
2013-06-12 21:02:00,51.6,51.3,24.19,East,90,6.0,15.0,99,0.01,,,0.06,meteohub,2013-06-13 03:02:00,
2013-06-12 21:07:00,51.6,51.3,24.19,East,90,6.0,15.0,99,0.01,,,0.06,meteohub,2013-06-13 03:07:00,
2013-06-12 21:12:00,52.3,52.0,24.18,NW,315,11.0,15.0,99,0.01,,,0.06,meteohub,2013-06-13 03:12:00,
2013-06-12 21:17:00,52.3,52.0,24.17,North,0,10.0,15.0,99,0.01,,,0.06,meteohub,2013-06-13 03:17:00,
2013-06-12 21:22:00,52.5,52.2,24.18,NE,45,6.0,15.0,99,0.01,,,0.06,meteohub,2013-06-13 03:22:00,
2013-06-12 21:27:00,52.5,52.2,24.18,NNE,23,6.0,13.0,99,0.01,,,0.06,meteohub,2013-06-13 03:27:00,
2013-06-12 21:32:00,52.5,52.2,24.18,North,0,5.0,11.0,99,0.00,,,0.06,meteohub,2013-06-13 03:32:00,
2013-06-12 21:37:00,52.5,52.2,24.18,NW,315,6.0,7.0,99,0.00,,,0.06,meteohub,2013-06-13 03:37:00,
2013-06-12 21:42:00,52.3,52.0,24.18,North,0,3.0,7.0,99,0.00,,,0.06,meteohub,2013-06-13 03:42:00,
2013-06-12 21:47:00,52.3,52.0,24.18,WSW,248,3.0,7.0,99,0.00,,,0.06,meteohub,2013-06-13 03:47:00,
2013-06-12 21:52:00,52.3,52.0,24.18,NE,45,4.0,6.0,99,0.00,,,0.06,meteohub,2013-06-13 03:52:00,
2013-06-12 21:57:00,52.3,52.0,24.18,North,0,7.0,7.0,99,0.00,,,0.06,meteohub,2013-06-13 03:57:00,
2013-06-12 22:02:00,52.5,52.2,24.19,North,0,11.0,11.0,99,0.00,,,0.06,meteohub,2013-06-13 04:02:00,
2013-06-12 22:07:00,52.5,52.2,24.19,North,0,11.0,11.0,99,0.00,,,0.06,meteohub,2013-06-13 04:07:00,
2013-06-12 22:12:00,52.3,52.0,24.19,North,0,12.0,14.0,99,0.00,,,0.06,meteohub,2013-06-13 04:12:00,
2013-06-12 22:17:00,52.3,52.0,24.19,NW,315,13.0,14.0,99,0.00,,,0.06,meteohub,2013-06-13 04:17:00,
2013-06-12 22:22:00,52.3,52.0,24.20,NW,315,11.0,14.0,99,0.00,,,0.06,meteohub,2013-06-13 04:22:00,
2013-06-12 22:27:00,52.3,52.0,24.20,NW,315,7.0,14.0,99,0.00,,,0.06,meteohub,2013-06-13 04:27:00,
2013-06-12 22:32:00,52.7,52.3,24.20,NW,315,6.0,14.0,99,0.00,,,0.06,meteohub,2013-06-13 04:32:00,
2013-06-12 22:37:00,52.7,52.3,24.20,North,0,7.0,14.0,99,0.00,,,0.06,meteohub,2013-06-13 04:37:00,
2013-06-12 22:42:00,52.7,52.3,24.21,North,0,4.0,10.0,99,0.00,,,0.06,meteohub,2013-06-13 04:42:00,
2013-06-12 22:47:00,51.8,51.4,24.20,South,180,5.0,9.0,99,0.00,,,0.06,meteohub,2013-06-13 04:47:00,
2013-06-12 22:52:00,51.8,51.4,24.20,SSW,203,7.0,8.0,99,0.00,,,0.06,meteohub,2013-06-13 04:52:00,
2013-06-12 22:57:00,52.2,51.8,24.21,NW,315,3.0,8.0,99,0.00,,,0.06,meteohub,2013-06-13 04:57:00,
2013-06-12 23:02:00,51.8,51.4,24.20,NW,315,8.0,8.0,99,0.00,,,0.06,meteohub,2013-06-13 05:02:00,
2013-06-12 23:07:00,51.8,51.4,24.20,NW,315,8.0,8.0,99,0.00,,,0.06,meteohub,2013-06-13 05:07:00,
2013-06-12 23:12:00,52.5,52.2,24.20,North,0,5.0,8.0,99,0.00,,,0.06,meteohub,2013-06-13 05:12:00,
2013-06-12 23:17:00,52.3,52.0,24.21,NW,315,5.0,8.0,99,0.00,,,0.06,meteohub,2013-06-13 05:17:00,
2013-06-12 23:22:00,51.4,51.1,24.20,NW,315,11.0,11.0,99,0.00,,,0.06,meteohub,2013-06-13 05:22:00,
2013-06-12 23:27:00,51.3,50.9,24.19,NW,315,5.0,11.0,99,0.00,,,0.06,meteohub,2013-06-13 05:27:00,
2013-06-12 23:32:00,51.3,50.9,24.19,NE,45,2.0,11.0,99,0.00,,,0.06,meteohub,2013-06-13 05:32:00,
2013-06-12 23:42:00,52.2,51.8,24.18,SE,135,8.0,8.0,99,0.00,,,0.06,meteohub,2013-06-13 05:42:00,
2013-06-12 23:47:00,52.0,51.6,24.18,SE,135,8.0,8.0,99,0.00,,,0.06,meteohub,2013-06-13 05:47:00,
2013-06-12 23:52:00,52.0,51.6,24.18,SE,135,8.0,9.0,99,0.00,,,0.06,meteohub,2013-06-13 05:52:00,
2013-06-12 23:57:00,51.6,51.3,24.18,SE,135,8.0,9.0,99,0.00,,,0.06,meteohub,2013-06-13 05:57:00,